Time;durP1;ratioP1;P1;durP2;ratioP2;P2;SDS_P1;SDS_P2;PMS_P1;PMS_P2;Temp;Humidity;BMP_temperature;BMP_pressure;BME280_temperature;BME280_humidity;BME280_pressure;Samples;Min_cycle;Max_cycle;Signal;HPM_P1;HPM_P2
2022/03/02 00:00:29;;;;;;;15.52;11.70;;;;;;;;;;4964916;28;20213;-82
2022/03/02 00:02:56;;;;;;;12.50;10.93;;;;;;;;;;4968136;28;21871;-75
2022/03/02 00:05:24;;;;;;;13.55;9.80;;;;;;;;;;4969682;28;20288;-83
2022/03/02 00:07:52;;;;;;;13.15;10.18;;;;;;;;;;4967903;28;20208;-82
2022/03/02 00:10:19;;;;;;;14.18;11.48;;;;;;;;;;4964787;28;20253;-82
2022/03/02 00:12:46;;;;;;;15.00;12.52;;;;;;;;;;4969029;28;20213;-82
2022/03/02 00:15:14;;;;;;;17.60;12.15;;;;;;;;;;4964826;28;20202;-74
2022/03/02 00:17:41;;;;;;;15.77;11.10;;;;;;;;;;4966796;28;20277;-75
2022/03/02 00:20:08;;;;;;;17.23;10.40;;;;;;;;;;4965325;28;20249;-74
2022/03/02 00:22:36;;;;;;;12.85;10.65;;;;;;;;;;4970355;28;20205;-74
2022/03/02 00:25:05;;;;;;;11.13;9.15;;;;;;;;;;4967315;28;20292;-74
2022/03/02 00:27:32;;;;;;;14.60;9.90;;;;;;;;;;4968009;28;20676;-74
2022/03/02 00:29:59;;;;;;;11.60;9.82;;;;;;;;;;4968237;28;20201;-75
2022/03/02 00:32:26;;;;;;;15.35;10.60;;;;;;;;;;4969488;28;20206;-74
2022/03/02 00:34:53;;;;;;;13.70;9.75;;;;;;;;;;4971298;28;20213;-74
2022/03/02 00:37:20;;;;;;;17.20;10.55;;;;;;;;;;4968858;28;20213;-75
2022/03/02 00:39:47;;;;;;;12.68;9.55;;;;;;;;;;4964165;28;20208;-75
2022/03/02 00:42:15;;;;;;;12.70;9.73;;;;;;;;;;4972770;28;20216;-74
2022/03/02 00:44:42;;;;;;;12.48;10.38;;;;;;;;;;4970265;28;20202;-76
2022/03/02 00:47:10;;;;;;;14.25;9.75;;;;;;;;;;4969805;28;20197;-74
2022/03/02 00:49:38;;;;;;;12.30;10.40;;;;;;;;;;4972040;28;20595;-74
2022/03/02 00:52:06;;;;;;;13.57;10.38;;;;;;;;;;4967231;28;20661;-76
2022/03/02 00:54:33;;;;;;;14.52;10.38;;;;;;;;;;4966187;28;20256;-75
2022/03/02 00:57:00;;;;;;;13.57;9.85;;;;;;;;;;4967467;28;20189;-74
2022/03/02 00:59:28;;;;;;;15.95;9.73;;;;;;;;;;4960750;28;20201;-76
2022/03/02 01:01:55;;;;;;;12.90;10.25;;;;;;;;;;4968528;28;20206;-74
2022/03/02 01:04:23;;;;;;;12.73;9.60;;;;;;;;;;4970589;28;20198;-75
2022/03/02 01:06:50;;;;;;;13.18;8.48;;;;;;;;;;4969523;28;20204;-75
2022/03/02 01:09:17;;;;;;;13.25;9.73;;;;;;;;;;4964140;28;20201;-76
2022/03/02 01:11:44;;;;;;;20.83;11.27;;;;;;;;;;4966516;28;20205;-75
2022/03/02 01:14:11;;;;;;;11.63;9.15;;;;;;;;;;4965020;28;20201;-75
2022/03/02 01:16:39;;;;;;;13.27;9.70;;;;;;;;;;4970870;28;20541;-75
2022/03/02 01:19:07;;;;;;;14.63;9.80;;;;;;;;;;4970209;28;20221;-76
2022/03/02 01:21:34;;;;;;;15.00;10.65;;;;;;;;;;4968859;28;20198;-76
2022/03/02 01:24:02;;;;;;;11.30;9.07;;;;;;;;;;4969668;28;20218;-75
2022/03/02 01:26:29;;;;;;;15.52;9.77;;;;;;;;;;4970751;28;20606;-75
2022/03/02 01:28:56;;;;;;;12.27;8.95;;;;;;;;;;4970881;28;20692;-75
2022/03/02 01:31:23;;;;;;;14.35;9.38;;;;;;;;;;4967365;28;20608;-76
2022/03/02 01:33:52;;;;;;;14.93;10.75;;;;;;;;;;4967157;28;20560;-74
2022/03/02 01:36:19;;;;;;;14.02;8.80;;;;;;;;;;4961592;28;20231;-75
2022/03/02 01:38:47;;;;;;;20.60;9.68;;;;;;;;;;4962503;28;20230;-75
2022/03/02 01:41:15;;;;;;;11.85;8.50;;;;;;;;;;4970911;28;20197;-74
2022/03/02 01:43:42;;;;;;;12.60;9.82;;;;;;;;;;4970850;28;20224;-75
2022/03/02 01:46:09;;;;;;;12.52;9.25;;;;;;;;;;4963011;28;20208;-74
2022/03/02 01:48:36;;;;;;;11.68;9.05;;;;;;;;;;4966603;28;20205;-75
2022/03/02 01:51:05;;;;;;;14.63;10.82;;;;;;;;;;4966007;28;20202;-75
2022/03/02 01:53:32;;;;;;;12.57;9.40;;;;;;;;;;4959769;28;20210;-77
2022/03/02 01:55:59;;;;;;;15.57;11.50;;;;;;;;;;4969073;28;20197;-76
2022/03/02 01:58:27;;;;;;;13.68;10.10;;;;;;;;;;4967091;28;20253;-75
2022/03/02 02:00:54;;;;;;;13.05;8.88;;;;;;;;;;4960467;28;20206;-76
2022/03/02 02:03:22;;;;;;;10.68;9.48;;;;;;;;;;4966907;28;20208;-76
2022/03/02 02:05:49;;;;;;;18.77;11.60;;;;;;;;;;4969863;28;20640;-78
2022/03/02 02:08:17;;;;;;;12.93;9.75;;;;;;;;;;4964217;28;20405;-75
2022/03/02 02:10:45;;;;;;;14.10;10.32;;;;;;;;;;4961786;28;20345;-79
2022/03/02 02:13:12;;;;;;;12.18;9.15;;;;;;;;;;4964943;28;20201;-75
2022/03/02 02:15:39;;;;;;;14.20;9.38;;;;;;;;;;4963284;28;20193;-77
2022/03/02 02:18:06;;;;;;;12.73;9.32;;;;;;;;;;4964356;28;20222;-75
2022/03/02 02:20:36;;;;;;;13.20;9.20;;;;;;;;;;4966919;28;20250;-77
2022/03/02 02:23:04;;;;;;;16.80;11.13;;;;;;;;;;4960750;28;20643;-77
2022/03/02 02:25:31;;;;;;;11.77;8.55;;;;;;;;;;4958663;28;20565;-75
2022/03/02 02:27:58;;;;;;;11.73;9.20;;;;;;;;;;4967630;28;20205;-75
2022/03/02 02:30:25;;;;;;;12.57;10.25;;;;;;;;;;4961773;28;20201;-75
2022/03/02 02:32:52;;;;;;;11.52;8.68;;;;;;;;;;4960396;28;20193;-75
2022/03/02 02:35:19;;;;;;;13.90;10.05;;;;;;;;;;4970891;28;20260;-74
2022/03/02 02:37:47;;;;;;;11.68;9.13;;;;;;;;;;4966218;28;20225;-74
2022/03/02 02:40:16;;;;;;;11.38;8.98;;;;;;;;;;4967781;28;20715;-77
2022/03/02 02:42:45;;;;;;;14.27;9.85;;;;;;;;;;4961288;28;20668;-74
2022/03/02 02:45:14;;;;;;;12.13;9.40;;;;;;;;;;4968161;28;20297;-74
2022/03/02 02:47:41;;;;;;;13.93;10.23;;;;;;;;;;4962973;28;20198;-74
2022/03/02 02:50:18;;;;;;;11.30;9.57;;;;;;;;;;4974605;28;20201;-74
2022/03/02 02:52:45;;;;;;;11.95;8.32;;;;;;;;;;4966600;28;20213;-76
2022/03/02 02:55:14;;;;;;;14.50;10.15;;;;;;;;;;4964932;28;20197;-75
2022/03/02 02:57:41;;;;;;;14.38;9.07;;;;;;;;;;4966474;28;20205;-74
2022/03/02 03:00:11;;;;;;;11.00;9.05;;;;;;;;;;4962482;28;20197;-74
2022/03/02 03:02:38;;;;;;;9.88;8.20;;;;;;;;;;4961832;28;20205;-74
2022/03/02 03:05:05;;;;;;;11.57;8.77;;;;;;;;;;4969278;28;20235;-74
2022/03/02 03:07:32;;;;;;;13.10;8.93;;;;;;;;;;4968135;28;20205;-74
2022/03/02 03:10:00;;;;;;;14.20;9.40;;;;;;;;;;4961098;28;20229;-74
2022/03/02 03:12:28;;;;;;;11.82;8.70;;;;;;;;;;4967931;28;20196;-74
2022/03/02 03:14:55;;;;;;;11.05;7.80;;;;;;;;;;4971321;28;20196;-74
2022/03/02 03:17:22;;;;;;;11.80;8.45;;;;;;;;;;4969291;28;20197;-75
2022/03/02 03:19:49;;;;;;;12.68;8.90;;;;;;;;;;4965915;28;20225;-76
2022/03/02 03:22:17;;;;;;;11.10;8.32;;;;;;;;;;4962481;28;20208;-75
2022/03/02 03:24:44;;;;;;;13.23;8.20;;;;;;;;;;4961257;28;20241;-74
2022/03/02 03:27:11;;;;;;;10.55;8.05;;;;;;;;;;4969322;28;20196;-75
2022/03/02 03:29:39;;;;;;;13.90;9.02;;;;;;;;;;4970321;28;20221;-75
2022/03/02 03:32:07;;;;;;;12.23;8.23;;;;;;;;;;4965313;28;20197;-74
2022/03/02 03:34:34;;;;;;;12.30;8.68;;;;;;;;;;4964205;28;20557;-75
2022/03/02 03:37:01;;;;;;;9.95;7.75;;;;;;;;;;4967524;28;20567;-75
2022/03/02 03:39:28;;;;;;;9.65;7.85;;;;;;;;;;4969941;28;20234;-75
2022/03/02 03:41:56;;;;;;;11.88;9.40;;;;;;;;;;4969240;28;20568;-74
2022/03/02 03:44:23;;;;;;;10.15;8.10;;;;;;;;;;4968920;28;20732;-75
2022/03/02 03:46:51;;;;;;;10.35;8.13;;;;;;;;;;4969686;28;20560;-76
2022/03/02 03:49:18;;;;;;;14.10;8.40;;;;;;;;;;4968362;28;20201;-75
2022/03/02 03:51:45;;;;;;;9.52;7.15;;;;;;;;;;4967444;28;21457;-74
2022/03/02 03:54:13;;;;;;;14.02;8.40;;;;;;;;;;4965386;28;20205;-74
2022/03/02 03:56:40;;;;;;;8.60;7.63;;;;;;;;;;4971392;28;20563;-74
2022/03/02 03:59:08;;;;;;;13.00;8.35;;;;;;;;;;4968101;28;20217;-75
2022/03/02 04:01:35;;;;;;;9.30;8.30;;;;;;;;;;4967845;28;20682;-74
2022/03/02 04:04:03;;;;;;;12.95;8.07;;;;;;;;;;4970701;28;20564;-77
2022/03/02 04:06:30;;;;;;;10.13;7.90;;;;;;;;;;4965588;28;20205;-76
2022/03/02 04:08:58;;;;;;;11.13;7.75;;;;;;;;;;4968006;28;20194;-77
2022/03/02 04:11:25;;;;;;;13.18;8.32;;;;;;;;;;4966415;28;20198;-75
2022/03/02 04:13:53;;;;;;;12.10;7.97;;;;;;;;;;4971223;28;20202;-73
2022/03/02 04:16:20;;;;;;;11.07;8.50;;;;;;;;;;4967688;28;20268;-74
2022/03/02 04:18:47;;;;;;;11.15;7.63;;;;;;;;;;4973423;28;20625;-74
2022/03/02 04:21:16;;;;;;;11.15;8.40;;;;;;;;;;4969706;28;20202;-74
2022/03/02 04:23:43;;;;;;;9.93;7.90;;;;;;;;;;4967842;28;20275;-76
2022/03/02 04:26:11;;;;;;;9.77;7.65;;;;;;;;;;4971821;28;20198;-74
2022/03/02 04:28:38;;;;;;;9.75;8.13;;;;;;;;;;4971992;28;20208;-74
2022/03/02 04:31:05;;;;;;;9.88;7.35;;;;;;;;;;4961253;28;20221;-76
2022/03/02 04:33:32;;;;;;;14.60;7.13;;;;;;;;;;4972985;28;20201;-74
2022/03/02 04:35:59;;;;;;;11.00;9.02;;;;;;;;;;4969129;28;20193;-74
2022/03/02 04:38:27;;;;;;;12.38;9.60;;;;;;;;;;4969512;28;20228;-74
2022/03/02 04:40:54;;;;;;;9.80;7.15;;;;;;;;;;4971273;28;20205;-74
2022/03/02 04:43:21;;;;;;;13.27;8.15;;;;;;;;;;4972248;28;20264;-74
2022/03/02 04:45:48;;;;;;;9.48;6.70;;;;;;;;;;4968065;28;20532;-74
2022/03/02 04:48:16;;;;;;;9.00;7.25;;;;;;;;;;4966739;28;20198;-76
2022/03/02 04:50:43;;;;;;;10.48;8.05;;;;;;;;;;4967304;28;20217;-75
2022/03/02 04:53:10;;;;;;;9.77;8.27;;;;;;;;;;4967382;28;20217;-75
2022/03/02 04:55:38;;;;;;;10.75;8.48;;;;;;;;;;4965434;28;20264;-76
2022/03/02 04:58:05;;;;;;;12.55;7.90;;;;;;;;;;4957085;28;20668;-76
2022/03/02 05:00:35;;;;;;;10.30;7.40;;;;;;;;;;4968067;28;20671;-75
2022/03/02 05:03:03;;;;;;;8.77;6.85;;;;;;;;;;4971132;28;20194;-74
2022/03/02 05:05:31;;;;;;;11.57;8.35;;;;;;;;;;4969943;28;20202;-75
2022/03/02 05:07:58;;;;;;;11.57;8.25;;;;;;;;;;4968784;28;20248;-73
2022/03/02 05:10:26;;;;;;;10.35;7.35;;;;;;;;;;4970523;28;20201;-74
2022/03/02 05:12:55;;;;;;;11.23;9.00;;;;;;;;;;4967155;28;20193;-74
2022/03/02 05:15:23;;;;;;;12.40;8.80;;;;;;;;;;4969533;28;20200;-74
2022/03/02 05:17:50;;;;;;;9.68;7.30;;;;;;;;;;4971997;28;20715;-76
2022/03/02 05:20:18;;;;;;;8.75;7.35;;;;;;;;;;4972145;28;20225;-74
2022/03/02 05:22:45;;;;;;;9.48;6.93;;;;;;;;;;4968482;28;20193;-74
2022/03/02 05:25:13;;;;;;;10.00;7.78;;;;;;;;;;4968656;28;20210;-74
2022/03/02 05:27:41;;;;;;;8.98;7.30;;;;;;;;;;4968259;28;20241;-74
2022/03/02 05:30:11;;;;;;;11.63;8.02;;;;;;;;;;4968805;28;20198;-74
2022/03/02 05:32:38;;;;;;;10.27;7.90;;;;;;;;;;4968736;28;20205;-75
2022/03/02 05:35:06;;;;;;;8.65;7.00;;;;;;;;;;4970426;28;20202;-74
2022/03/02 05:37:34;;;;;;;12.30;7.63;;;;;;;;;;4969049;28;20220;-73
2022/03/02 05:40:01;;;;;;;13.82;8.45;;;;;;;;;;4969763;28;20220;-75
2022/03/02 05:42:28;;;;;;;10.68;8.32;;;;;;;;;;4972071;28;20190;-74
2022/03/02 05:44:55;;;;;;;11.07;8.18;;;;;;;;;;4966721;28;20193;-74
2022/03/02 05:47:23;;;;;;;10.45;7.65;;;;;;;;;;4968928;28;20561;-74
2022/03/02 05:49:51;;;;;;;9.57;8.52;;;;;;;;;;4971906;28;20260;-75
2022/03/02 05:52:18;;;;;;;9.48;8.00;;;;;;;;;;4962643;28;20293;-75
2022/03/02 05:54:46;;;;;;;10.93;8.10;;;;;;;;;;4968516;28;20256;-75
2022/03/02 05:57:13;;;;;;;10.85;8.88;;;;;;;;;;4967335;28;20200;-75
2022/03/02 05:59:40;;;;;;;12.68;8.20;;;;;;;;;;4970837;28;20292;-74
2022/03/02 06:02:07;;;;;;;11.13;7.90;;;;;;;;;;4969413;28;20197;-75
2022/03/02 06:04:35;;;;;;;11.10;7.90;;;;;;;;;;4969748;28;20668;-74
2022/03/02 06:07:02;;;;;;;13.07;8.02;;;;;;;;;;4964737;28;20202;-74
2022/03/02 06:09:30;;;;;;;10.05;7.53;;;;;;;;;;4962345;28;20242;-75
2022/03/02 06:11:57;;;;;;;11.27;8.18;;;;;;;;;;4964763;28;20256;-74
2022/03/02 06:14:24;;;;;;;11.25;8.82;;;;;;;;;;4965043;28;20194;-74
2022/03/02 06:16:52;;;;;;;11.00;7.63;;;;;;;;;;4965369;28;20197;-74
2022/03/02 06:19:20;;;;;;;13.02;8.82;;;;;;;;;;4968791;28;20333;-75
2022/03/02 06:21:49;;;;;;;12.57;8.00;;;;;;;;;;4962509;28;20205;-75
2022/03/02 06:24:16;;;;;;;11.32;8.82;;;;;;;;;;4959561;28;20222;-75
2022/03/02 06:26:44;;;;;;;14.60;8.88;;;;;;;;;;4968846;28;20209;-75
2022/03/02 06:29:11;;;;;;;9.50;8.43;;;;;;;;;;4965242;28;20197;-75
2022/03/02 06:31:40;;;;;;;14.00;9.18;;;;;;;;;;4964224;28;20488;-75
2022/03/02 06:34:07;;;;;;;12.73;8.82;;;;;;;;;;4966788;28;20220;-76
2022/03/02 06:36:34;;;;;;;12.18;8.88;;;;;;;;;;4966910;28;20205;-75
2022/03/02 06:39:02;;;;;;;10.77;7.90;;;;;;;;;;4966772;28;20217;-75
2022/03/02 06:41:30;;;;;;;11.52;9.38;;;;;;;;;;4968259;28;20197;-75
2022/03/02 06:44:01;;;;;;;10.23;7.60;;;;;;;;;;4962382;28;20225;-75
2022/03/02 06:46:32;;;;;;;15.15;8.70;;;;;;;;;;4963767;28;20612;-75
2022/03/02 06:49:03;;;;;;;13.18;8.55;;;;;;;;;;4968637;28;20448;-74
2022/03/02 06:51:31;;;;;;;15.00;8.73;;;;;;;;;;4964174;28;20205;-75
2022/03/02 06:53:59;;;;;;;11.20;8.93;;;;;;;;;;4952751;28;20206;-75
2022/03/02 06:56:28;;;;;;;14.25;8.82;;;;;;;;;;4965234;28;20208;-75
2022/03/02 06:58:57;;;;;;;10.00;7.85;;;;;;;;;;4964637;28;20220;-75
2022/03/02 07:01:26;;;;;;;11.02;8.20;;;;;;;;;;4970898;28;20190;-74
2022/03/02 07:03:54;;;;;;;10.20;7.78;;;;;;;;;;4967394;28;20201;-75
2022/03/02 07:06:22;;;;;;;10.57;7.93;;;;;;;;;;4968198;28;21472;-75
2022/03/02 07:08:49;;;;;;;12.90;9.00;;;;;;;;;;4965562;28;20661;-74
2022/03/02 07:11:17;;;;;;;15.38;9.55;;;;;;;;;;4966156;28;20197;-73
2022/03/02 07:13:45;;;;;;;10.55;9.02;;;;;;;;;;4966561;28;20280;-74
2022/03/02 07:16:12;;;;;;;12.18;7.35;;;;;;;;;;4960614;28;20288;-74
2022/03/02 07:18:39;;;;;;;13.30;8.25;;;;;;;;;;4967234;28;20252;-74
2022/03/02 07:21:09;;;;;;;10.77;9.10;;;;;;;;;;4972546;28;20268;-76
2022/03/02 07:23:39;;;;;;;13.38;8.45;;;;;;;;;;4968321;28;20230;-74
2022/03/02 07:26:06;;;;;;;12.55;8.45;;;;;;;;;;4968994;28;20205;-74
2022/03/02 07:28:38;;;;;;;11.68;7.60;;;;;;;;;;4973092;28;20214;-74
2022/03/02 07:31:08;;;;;;;14.10;9.60;;;;;;;;;;4967801;28;20209;-74
2022/03/02 07:33:37;;;;;;;11.43;7.95;;;;;;;;;;4967753;28;20240;-75
2022/03/02 07:36:04;;;;;;;11.30;8.73;;;;;;;;;;4969816;28;20656;-75
2022/03/02 07:38:32;;;;;;;12.45;8.57;;;;;;;;;;4971387;28;20193;-74
2022/03/02 07:40:59;;;;;;;12.07;8.45;;;;;;;;;;4969953;28;20696;-75
2022/03/02 07:43:26;;;;;;;10.20;7.70;;;;;;;;;;4970770;28;20354;-74
2022/03/02 07:45:53;;;;;;;11.95;7.25;;;;;;;;;;4972911;28;20202;-75
2022/03/02 07:48:22;;;;;;;8.10;7.07;;;;;;;;;;4962317;28;20198;-75
2022/03/02 07:50:50;;;;;;;11.10;7.03;;;;;;;;;;4970502;28;20205;-76
2022/03/02 07:53:18;;;;;;;10.55;8.38;;;;;;;;;;4962930;28;20206;-75
2022/03/02 07:55:45;;;;;;;14.02;8.60;;;;;;;;;;4962667;28;20204;-75
2022/03/02 07:58:13;;;;;;;9.75;7.45;;;;;;;;;;4963870;28;20596;-74
2022/03/02 08:00:40;;;;;;;11.93;7.85;;;;;;;;;;4967436;28;20217;-74
2022/03/02 08:03:07;;;;;;;15.05;8.20;;;;;;;;;;4966294;28;20197;-73
2022/03/02 08:05:36;;;;;;;9.13;7.88;;;;;;;;;;4965887;28;20194;-75
2022/03/02 08:08:03;;;;;;;7.05;6.30;;;;;;;;;;4961253;28;20684;-74
2022/03/02 08:10:30;;;;;;;10.43;7.30;;;;;;;;;;4964590;28;20276;-75
2022/03/02 08:12:58;;;;;;;10.00;7.38;;;;;;;;;;4966684;28;20194;-75
2022/03/02 08:15:26;;;;;;;10.93;7.53;;;;;;;;;;4965020;28;20204;-74
2022/03/02 08:17:53;;;;;;;8.35;6.95;;;;;;;;;;4965747;28;20625;-75
2022/03/02 08:20:20;;;;;;;15.07;7.70;;;;;;;;;;4961140;28;20217;-74
2022/03/02 08:22:51;;;;;;;8.52;6.97;;;;;;;;;;4962349;28;20205;-75
2022/03/02 08:25:19;;;;;;;8.68;7.20;;;;;;;;;;4963823;28;20225;-76
2022/03/02 08:27:47;;;;;;;10.73;7.93;;;;;;;;;;4963774;28;20256;-73
2022/03/02 08:30:15;;;;;;;7.97;7.07;;;;;;;;;;4969895;28;20256;-74
2022/03/02 08:32:43;;;;;;;12.18;8.30;;;;;;;;;;4965918;28;20205;-75
2022/03/02 08:35:11;;;;;;;8.93;7.10;;;;;;;;;;4962980;28;20194;-75
2022/03/02 08:37:38;;;;;;;8.02;5.93;;;;;;;;;;4962308;28;20201;-76
2022/03/02 08:40:08;;;;;;;10.88;8.07;;;;;;;;;;4965148;28;20225;-76
2022/03/02 08:42:35;;;;;;;9.68;8.45;;;;;;;;;;4964559;28;20198;-74
2022/03/02 08:45:02;;;;;;;13.55;7.80;;;;;;;;;;4966408;28;20604;-75
2022/03/02 08:47:31;;;;;;;9.80;7.50;;;;;;;;;;4961635;28;20202;-77
2022/03/02 08:49:58;;;;;;;10.25;7.78;;;;;;;;;;4965856;28;20206;-75
2022/03/02 08:52:26;;;;;;;12.63;7.80;;;;;;;;;;4963607;28;20836;-74
2022/03/02 08:54:55;;;;;;;8.27;7.22;;;;;;;;;;4969903;28;20208;-74
2022/03/02 08:57:24;;;;;;;8.93;7.05;;;;;;;;;;4961456;28;20205;-74
2022/03/02 08:59:53;;;;;;;10.48;6.55;;;;;;;;;;4967992;28;20228;-75
2022/03/02 09:02:21;;;;;;;9.93;7.63;;;;;;;;;;4968663;28;20229;-75
2022/03/02 09:04:48;;;;;;;10.57;6.93;;;;;;;;;;4969383;28;20325;-74
2022/03/02 09:07:18;;;;;;;10.80;7.22;;;;;;;;;;4961387;28;20197;-76
2022/03/02 09:09:45;;;;;;;8.63;7.13;;;;;;;;;;4962281;28;20633;-76
2022/03/02 09:12:12;;;;;;;7.32;6.15;;;;;;;;;;4966207;28;20193;-73
2022/03/02 09:14:40;;;;;;;10.73;7.78;;;;;;;;;;4973353;28;20197;-77
2022/03/02 09:17:08;;;;;;;8.43;6.55;;;;;;;;;;4960631;28;20206;-75
2022/03/02 09:19:35;;;;;;;10.73;7.22;;;;;;;;;;4963603;28;20260;-76
2022/03/02 09:22:03;;;;;;;8.65;7.28;;;;;;;;;;4965330;28;20236;-75
2022/03/02 09:24:31;;;;;;;9.55;6.13;;;;;;;;;;4966067;28;20312;-75
2022/03/02 09:26:59;;;;;;;11.07;6.82;;;;;;;;;;4963288;28;20204;-77
2022/03/02 09:29:29;;;;;;;8.75;6.38;;;;;;;;;;4961871;28;20207;-76
2022/03/02 09:31:57;;;;;;;12.18;7.55;;;;;;;;;;4963064;28;20221;-76
2022/03/02 09:34:26;;;;;;;8.23;6.45;;;;;;;;;;4968854;28;20201;-75
2022/03/02 09:36:54;;;;;;;7.90;6.25;;;;;;;;;;4965629;28;20203;-75
2022/03/02 09:39:23;;;;;;;8.70;6.13;;;;;;;;;;4973733;28;20190;-79
2022/03/02 09:41:54;;;;;;;7.93;5.90;;;;;;;;;;4971503;28;20213;-82
2022/03/02 09:44:25;;;;;;;8.10;5.95;;;;;;;;;;4965148;28;20601;-81
2022/03/02 09:46:55;;;;;;;10.02;6.90;;;;;;;;;;4957129;28;20201;-77
2022/03/02 09:49:24;;;;;;;8.98;5.95;;;;;;;;;;4967933;28;20631;-74
2022/03/02 09:51:53;;;;;;;8.13;6.20;;;;;;;;;;4964727;28;20206;-80
2022/03/02 09:54:22;;;;;;;6.25;5.65;;;;;;;;;;4972576;28;20198;-74
2022/03/02 09:56:50;;;;;;;8.10;6.22;;;;;;;;;;4973946;28;20200;-74
2022/03/02 09:59:18;;;;;;;7.80;5.88;;;;;;;;;;4970990;28;20217;-75
2022/03/02 10:01:46;;;;;;;7.07;5.70;;;;;;;;;;4969180;28;20596;-74
2022/03/02 10:04:17;;;;;;;7.50;6.47;;;;;;;;;;4969479;28;20193;-74
2022/03/02 10:06:46;;;;;;;10.02;6.70;;;;;;;;;;4968074;28;20292;-74
2022/03/02 10:09:14;;;;;;;13.05;6.82;;;;;;;;;;4978367;28;20588;-74
2022/03/02 10:11:43;;;;;;;7.90;6.22;;;;;;;;;;4973513;28;20201;-74
2022/03/02 10:14:10;;;;;;;8.35;6.30;;;;;;;;;;4973070;28;20811;-74
2022/03/02 10:16:44;;;;;;;7.57;6.53;;;;;;;;;;4967036;28;20222;-74
2022/03/02 10:19:16;;;;;;;9.23;6.70;;;;;;;;;;4972063;28;20232;-74
2022/03/02 10:21:46;;;;;;;8.95;7.28;;;;;;;;;;4970953;28;20885;-74
2022/03/02 10:24:17;;;;;;;9.10;7.18;;;;;;;;;;4966406;28;20214;-75
2022/03/02 10:26:51;;;;;;;9.07;6.97;;;;;;;;;;4973871;28;20197;-74
2022/03/02 10:29:25;;;;;;;9.45;6.82;;;;;;;;;;4971820;28;20201;-74
2022/03/02 10:31:57;;;;;;;10.50;7.75;;;;;;;;;;4971498;28;20659;-74
2022/03/02 10:34:30;;;;;;;7.82;6.35;;;;;;;;;;4972641;28;20216;-75
2022/03/02 10:37:03;;;;;;;8.45;6.65;;;;;;;;;;4975845;28;20217;-75
2022/03/02 10:39:39;;;;;;;8.60;6.13;;;;;;;;;;4969679;28;20197;-74
2022/03/02 10:42:07;;;;;;;14.15;7.00;;;;;;;;;;4969987;28;20304;-75
2022/03/02 10:44:40;;;;;;;8.23;6.57;;;;;;;;;;4969756;28;20240;-73
2022/03/02 10:47:09;;;;;;;8.35;6.80;;;;;;;;;;4969185;28;20221;-74
2022/03/02 10:49:36;;;;;;;9.10;6.47;;;;;;;;;;4972153;28;20197;-74
2022/03/02 10:52:05;;;;;;;8.50;6.07;;;;;;;;;;4968792;28;20210;-74
2022/03/02 10:54:34;;;;;;;8.65;6.47;;;;;;;;;;4972353;28;20208;-74
2022/03/02 10:57:03;;;;;;;8.95;7.15;;;;;;;;;;4972062;28;20205;-75
2022/03/02 10:59:32;;;;;;;8.63;6.35;;;;;;;;;;4967664;28;20607;-73
2022/03/02 11:02:01;;;;;;;12.15;6.80;;;;;;;;;;4971349;28;20216;-74
2022/03/02 11:04:30;;;;;;;10.88;6.25;;;;;;;;;;4974585;28;20213;-72
2022/03/02 11:06:57;;;;;;;8.77;7.00;;;;;;;;;;4968076;28;20200;-75
2022/03/02 11:09:26;;;;;;;7.88;6.07;;;;;;;;;;4966492;28;20194;-73
2022/03/02 11:11:55;;;;;;;7.70;6.10;;;;;;;;;;4962664;28;20209;-74
2022/03/02 11:14:22;;;;;;;10.75;6.50;;;;;;;;;;4966270;28;20206;-71
2022/03/02 11:16:50;;;;;;;9.82;6.35;;;;;;;;;;4963406;28;20213;-73
2022/03/02 11:19:18;;;;;;;6.90;6.15;;;;;;;;;;4966929;28;20240;-75
2022/03/02 11:21:46;;;;;;;7.53;6.32;;;;;;;;;;4967168;28;20244;-76
2022/03/02 11:24:16;;;;;;;9.57;6.70;;;;;;;;;;4968094;28;20232;-74
2022/03/02 11:26:44;;;;;;;8.70;6.97;;;;;;;;;;4965566;28;20208;-75
2022/03/02 11:29:13;;;;;;;12.25;6.47;;;;;;;;;;4968414;28;20201;-73
2022/03/02 11:31:41;;;;;;;7.95;7.15;;;;;;;;;;4961790;28;20205;-73
2022/03/02 11:34:10;;;;;;;9.98;7.43;;;;;;;;;;4967186;28;20202;-74
2022/03/02 11:36:37;;;;;;;10.52;7.50;;;;;;;;;;4964066;28;20206;-74
2022/03/02 11:39:06;;;;;;;8.60;6.40;;;;;;;;;;4967216;28;20256;-71
2022/03/02 11:41:34;;;;;;;14.40;7.93;;;;;;;;;;4959084;28;20261;-72
2022/03/02 11:44:01;;;;;;;11.85;7.25;;;;;;;;;;4967592;28;20528;-74
2022/03/02 11:46:29;;;;;;;8.80;6.93;;;;;;;;;;4964813;28;20202;-72
2022/03/02 11:48:57;;;;;;;8.18;6.95;;;;;;;;;;4967703;28;20609;-72
2022/03/02 11:51:26;;;;;;;9.63;6.15;;;;;;;;;;4971875;28;20231;-74
2022/03/02 11:53:54;;;;;;;9.43;7.18;;;;;;;;;;4965674;28;20673;-73
2022/03/02 11:56:22;;;;;;;9.90;7.70;;;;;;;;;;4966314;28;20205;-73
2022/03/02 11:58:56;;;;;;;8.68;6.95;;;;;;;;;;4966306;28;20209;-72
2022/03/02 12:01:23;;;;;;;7.55;6.15;;;;;;;;;;4962578;28;20220;-72
2022/03/02 12:03:59;;;;;;;10.25;6.97;;;;;;;;;;4966096;28;20202;-72
2022/03/02 12:06:27;;;;;;;9.57;7.03;;;;;;;;;;4963463;28;20222;-72
2022/03/02 12:08:54;;;;;;;12.30;6.93;;;;;;;;;;4966581;28;20525;-75
2022/03/02 12:11:25;;;;;;;8.43;6.22;;;;;;;;;;4969557;28;20202;-73
2022/03/02 12:14:10;;;;;;;8.93;6.15;;;;;;;;;;4969541;28;20284;-73
2022/03/02 12:16:38;;;;;;;9.23;6.88;;;;;;;;;;4967966;28;20197;-73
2022/03/02 12:19:07;;;;;;;11.80;7.72;;;;;;;;;;4969760;28;20300;-72
2022/03/02 12:21:34;;;;;;;10.95;7.78;;;;;;;;;;4969379;28;20246;-74
2022/03/02 12:24:01;;;;;;;7.55;6.60;;;;;;;;;;4971502;28;20226;-73
2022/03/02 12:26:30;;;;;;;10.93;7.05;;;;;;;;;;4969650;28;20197;-72
2022/03/02 12:28:57;;;;;;;11.88;7.38;;;;;;;;;;4964529;28;20502;-72
2022/03/02 12:31:30;;;;;;;10.13;7.30;;;;;;;;;;4969896;28;20249;-73
2022/03/02 12:34:00;;;;;;;7.55;6.75;;;;;;;;;;4964738;28;20304;-73
2022/03/02 12:36:29;;;;;;;10.52;6.60;;;;;;;;;;4970073;28;20197;-74
2022/03/02 12:38:56;;;;;;;11.88;6.60;;;;;;;;;;4968886;28;20233;-77
2022/03/02 12:41:23;;;;;;;12.27;7.28;;;;;;;;;;4970472;28;20320;-75
2022/03/02 12:43:50;;;;;;;10.43;7.18;;;;;;;;;;4962125;28;20226;-75
2022/03/02 12:46:17;;;;;;;6.35;5.30;;;;;;;;;;4968486;28;20268;-74
2022/03/02 12:48:45;;;;;;;6.78;6.03;;;;;;;;;;4966618;28;20275;-76
2022/03/02 12:51:12;;;;;;;8.73;7.00;;;;;;;;;;4963588;28;20193;-75
2022/03/02 12:53:41;;;;;;;9.50;6.47;;;;;;;;;;4967776;28;20205;-77
2022/03/02 12:56:08;;;;;;;11.32;7.03;;;;;;;;;;4967564;28;20200;-75
2022/03/02 12:58:35;;;;;;;8.80;7.05;;;;;;;;;;4970084;28;20212;-76
2022/03/02 13:01:02;;;;;;;9.00;6.93;;;;;;;;;;4968735;28;20615;-75
2022/03/02 13:03:31;;;;;;;8.10;6.65;;;;;;;;;;4970325;28;20201;-76
2022/03/02 13:06:02;;;;;;;9.23;5.95;;;;;;;;;;4960020;28;20197;-74
2022/03/02 13:08:31;;;;;;;8.52;6.50;;;;;;;;;;4967094;28;20208;-73
2022/03/02 13:10:59;;;;;;;8.63;6.57;;;;;;;;;;4969261;28;20201;-76
2022/03/02 13:13:34;;;;;;;10.68;6.97;;;;;;;;;;4970088;28;20201;-75
2022/03/02 13:16:15;;;;;;;8.82;6.45;;;;;;;;;;4968588;28;20352;-75
2022/03/02 13:18:42;;;;;;;8.77;6.32;;;;;;;;;;4968250;28;20201;-75
2022/03/02 13:21:17;;;;;;;6.40;5.60;;;;;;;;;;4965079;28;20277;-75
2022/03/02 13:23:59;;;;;;;7.03;5.78;;;;;;;;;;4967723;28;20699;-79
2022/03/02 13:26:27;;;;;;;10.07;5.88;;;;;;;;;;4963895;28;20561;-75
2022/03/02 13:29:08;;;;;;;9.25;5.85;;;;;;;;;;4965970;28;20205;-72
2022/03/02 13:31:51;;;;;;;10.80;7.55;;;;;;;;;;4967291;28;20716;-73
2022/03/02 13:34:19;;;;;;;7.63;6.78;;;;;;;;;;4962636;28;20197;-72
2022/03/02 13:36:48;;;;;;;7.40;6.25;;;;;;;;;;4966052;28;20723;-72
2022/03/02 13:39:16;;;;;;;8.60;6.22;;;;;;;;;;4970900;28;20256;-70
2022/03/02 13:41:45;;;;;;;8.07;6.07;;;;;;;;;;4969772;28;20228;-73
2022/03/02 13:44:29;;;;;;;11.52;7.65;;;;;;;;;;4967198;28;20194;-72
2022/03/02 13:47:17;;;;;;;6.53;4.95;;;;;;;;;;4967884;28;20201;-72
2022/03/02 13:50:04;;;;;;;12.38;5.55;;;;;;;;;;4972175;28;20228;-70
2022/03/02 13:52:50;;;;;;;8.00;6.15;;;;;;;;;;4969192;28;20661;-72
2022/03/02 13:55:32;;;;;;;7.35;5.78;;;;;;;;;;4966434;28;20193;-71
2022/03/02 13:58:14;;;;;;;10.45;7.07;;;;;;;;;;4968421;28;20757;-71
2022/03/02 14:00:42;;;;;;;11.98;6.43;;;;;;;;;;4969722;28;20201;-71
2022/03/02 14:03:26;;;;;;;7.50;5.40;;;;;;;;;;4969629;28;20217;-71
2022/03/02 14:05:53;;;;;;;8.98;5.32;;;;;;;;;;4968454;28;20194;-71
2022/03/02 14:08:20;;;;;;;8.27;6.32;;;;;;;;;;4967707;28;20208;-71
2022/03/02 14:10:47;;;;;;;7.95;6.13;;;;;;;;;;4972290;28;20190;-71
2022/03/02 14:13:14;;;;;;;15.90;7.65;;;;;;;;;;4970975;28;20692;-71
2022/03/02 14:15:44;;;;;;;7.45;5.25;;;;;;;;;;4972421;28;20208;-72
2022/03/02 14:18:16;;;;;;;7.38;6.10;;;;;;;;;;4969690;28;20244;-71
2022/03/02 14:20:43;;;;;;;10.88;7.63;;;;;;;;;;4966622;28;20205;-71
2022/03/02 14:23:10;;;;;;;7.60;6.05;;;;;;;;;;4972093;28;20692;-71
2022/03/02 14:25:39;;;;;;;8.80;4.88;;;;;;;;;;4971801;28;20197;-72
2022/03/02 14:28:08;;;;;;;7.90;5.18;;;;;;;;;;4970178;28;20201;-71
2022/03/02 14:30:36;;;;;;;11.38;5.30;;;;;;;;;;4971132;28;20205;-71
2022/03/02 14:33:12;;;;;;;11.88;5.75;;;;;;;;;;4971545;28;20530;-71
2022/03/02 14:35:39;;;;;;;6.10;4.45;;;;;;;;;;4972427;28;20930;-71
2022/03/02 14:38:06;;;;;;;8.95;6.35;;;;;;;;;;4968711;28;20260;-71
2022/03/02 14:40:34;;;;;;;6.15;5.10;;;;;;;;;;4971144;28;20201;-71